sensor_id;sensor_type;location;lat;lon;timestamp;pressure;altitude;pressure_sealevel;temperature;humidity
33697;BME280;20031;43.416;23.232;2023-01-27T00:00:24;99623.56;;;1.15;91.38
33697;BME280;20031;43.416;23.232;2023-01-27T00:02:50;99636.38;;;1.15;91.74
33697;BME280;20031;43.416;23.232;2023-01-27T00:05:15;99630.22;;;1.18;91.73
33697;BME280;20031;43.416;23.232;2023-01-27T00:07:42;99632.66;;;1.19;91.68
33697;BME280;20031;43.416;23.232;2023-01-27T00:10:11;99623.22;;;1.20;91.28
33697;BME280;20031;43.416;23.232;2023-01-27T00:12:37;99617.16;;;1.21;91.57
33697;BME280;20031;43.416;23.232;2023-01-27T00:15:21;99617.16;;;1.21;91.17
33697;BME280;20031;43.416;23.232;2023-01-27T00:17:46;99607.03;;;1.19;91.40
33697;BME280;20031;43.416;23.232;2023-01-27T00:20:11;99602.81;;;1.18;91.90
33697;BME280;20031;43.416;23.232;2023-01-27T00:22:37;99602.81;;;1.18;91.34
33697;BME280;20031;43.416;23.232;2023-01-27T00:25:21;99608.16;;;1.15;91.58
33697;BME280;20031;43.416;23.232;2023-01-27T00:27:46;99597.13;;;1.15;91.72
33697;BME280;20031;43.416;23.232;2023-01-27T00:30:12;99591.97;;;1.15;91.73
33697;BME280;20031;43.416;23.232;2023-01-27T00:32:37;99596.28;;;1.14;91.74
33697;BME280;20031;43.416;23.232;2023-01-27T00:35:22;99593.00;;;1.12;91.79
33697;BME280;20031;43.416;23.232;2023-01-27T00:37:48;99593.94;;;1.11;91.54
33697;BME280;20031;43.416;23.232;2023-01-27T00:40:15;99593.81;;;1.13;91.23
33697;BME280;20031;43.416;23.232;2023-01-27T00:42:41;99591.03;;;1.16;91.84
33697;BME280;20031;43.416;23.232;2023-01-27T00:45:07;99591.75;;;1.18;92.04
33697;BME280;20031;43.416;23.232;2023-01-27T00:47:52;99581.72;;;1.15;91.58
33697;BME280;20031;43.416;23.232;2023-01-27T00:50:18;99585.78;;;1.17;92.02
33697;BME280;20031;43.416;23.232;2023-01-27T00:52:44;99583.00;;;1.20;92.25
33697;BME280;20031;43.416;23.232;2023-01-27T00:55:10;99594.69;;;1.24;92.02
33697;BME280;20031;43.416;23.232;2023-01-27T00:57:37;99594.22;;;1.19;91.79
33697;BME280;20031;43.416;23.232;2023-01-27T01:00:04;99587.94;;;1.23;92.43
33697;BME280;20031;43.416;23.232;2023-01-27T01:02:30;99587.81;;;1.25;92.28
33697;BME280;20031;43.416;23.232;2023-01-27T01:04:56;99593.88;;;1.24;92.12
33697;BME280;20031;43.416;23.232;2023-01-27T01:07:21;99581.03;;;1.24;91.63
33697;BME280;20031;43.416;23.232;2023-01-27T01:09:47;99571.81;;;1.21;91.75
33697;BME280;20031;43.416;23.232;2023-01-27T01:12:12;99557.28;;;1.22;92.19
33697;BME280;20031;43.416;23.232;2023-01-27T01:14:38;99551.44;;;1.20;92.04
33697;BME280;20031;43.416;23.232;2023-01-27T01:17:03;99544.09;;;1.15;91.80
33697;BME280;20031;43.416;23.232;2023-01-27T01:19:29;99547.69;;;1.13;91.80
33697;BME280;20031;43.416;23.232;2023-01-27T01:21:55;99539.28;;;1.11;91.70
33697;BME280;20031;43.416;23.232;2023-01-27T01:24:20;99546.16;;;1.10;91.71
33697;BME280;20031;43.416;23.232;2023-01-27T01:26:46;99543.50;;;1.12;91.68
33697;BME280;20031;43.416;23.232;2023-01-27T01:29:11;99547.00;;;1.11;92.08
33697;BME280;20031;43.416;23.232;2023-01-27T01:31:37;99557.00;;;1.14;92.34
33697;BME280;20031;43.416;23.232;2023-01-27T01:34:02;99570.63;;;1.14;91.73
33697;BME280;20031;43.416;23.232;2023-01-27T01:36:28;99573.09;;;1.16;91.76
33697;BME280;20031;43.416;23.232;2023-01-27T01:38:54;99586.63;;;1.18;92.16
33697;BME280;20031;43.416;23.232;2023-01-27T01:41:21;99571.03;;;1.21;91.99
33697;BME280;20031;43.416;23.232;2023-01-27T01:43:48;99570.09;;;1.22;92.25
33697;BME280;20031;43.416;23.232;2023-01-27T01:46:14;99562.19;;;1.25;91.80
33697;BME280;20031;43.416;23.232;2023-01-27T01:48:44;99561.34;;;1.24;91.71
33697;BME280;20031;43.416;23.232;2023-01-27T01:53:54;99551.19;;;1.23;92.11
33697;BME280;20031;43.416;23.232;2023-01-27T01:56:23;99552.03;;;1.23;91.85
33697;BME280;20031;43.416;23.232;2023-01-27T01:58:52;99549.59;;;1.22;91.70
33697;BME280;20031;43.416;23.232;2023-01-27T02:01:19;99553.19;;;1.19;91.94
33697;BME280;20031;43.416;23.232;2023-01-27T02:03:48;99545.94;;;1.13;91.48
33697;BME280;20031;43.416;23.232;2023-01-27T02:06:15;99555.38;;;1.13;91.59
33697;BME280;20031;43.416;23.232;2023-01-27T02:08:43;99554.22;;;1.17;91.99
33697;BME280;20031;43.416;23.232;2023-01-27T02:11:09;99547.22;;;1.19;91.78
33697;BME280;20031;43.416;23.232;2023-01-27T02:13:35;99547.34;;;1.17;91.62
33697;BME280;20031;43.416;23.232;2023-01-27T02:16:01;99543.28;;;1.15;91.60
33697;BME280;20031;43.416;23.232;2023-01-27T02:18:27;99537.19;;;1.16;91.67
33697;BME280;20031;43.416;23.232;2023-01-27T02:20:53;99531.84;;;1.19;91.90
33697;BME280;20031;43.416;23.232;2023-01-27T02:23:47;99541.41;;;1.17;91.96
33697;BME280;20031;43.416;23.232;2023-01-27T02:26:35;99540.72;;;1.15;91.82
33697;BME280;20031;43.416;23.232;2023-01-27T02:29:14;99528.59;;;1.17;92.40
33697;BME280;20031;43.416;23.232;2023-01-27T02:31:40;99519.75;;;1.21;92.09
33697;BME280;20031;43.416;23.232;2023-01-27T02:34:16;99511.81;;;1.24;92.29
33697;BME280;20031;43.416;23.232;2023-01-27T02:37:04;99497.97;;;1.26;92.59
33697;BME280;20031;43.416;23.232;2023-01-27T02:39:36;99490.38;;;1.25;91.63
33697;BME280;20031;43.416;23.232;2023-01-27T02:42:05;99475.13;;;1.23;92.29
33697;BME280;20031;43.416;23.232;2023-01-27T02:44:32;99468.25;;;1.24;91.98
33697;BME280;20031;43.416;23.232;2023-01-27T02:46:57;99475.81;;;1.25;91.63
33697;BME280;20031;43.416;23.232;2023-01-27T02:49:23;99479.53;;;1.21;91.99
33697;BME280;20031;43.416;23.232;2023-01-27T02:51:48;99477.69;;;1.23;91.97
33697;BME280;20031;43.416;23.232;2023-01-27T02:54:14;99479.19;;;1.26;91.68
33697;BME280;20031;43.416;23.232;2023-01-27T02:56:39;99478.94;;;1.29;92.43
33697;BME280;20031;43.416;23.232;2023-01-27T02:59:04;99472.09;;;1.29;92.01
33697;BME280;20031;43.416;23.232;2023-01-27T03:01:30;99463.31;;;1.32;92.58
33697;BME280;20031;43.416;23.232;2023-01-27T03:03:57;99458.13;;;1.33;92.65
33697;BME280;20031;43.416;23.232;2023-01-27T03:06:22;99457.28;;;1.33;92.24
33697;BME280;20031;43.416;23.232;2023-01-27T03:08:48;99446.91;;;1.34;92.48
33697;BME280;20031;43.416;23.232;2023-01-27T03:11:13;99445.97;;;1.35;91.82
33697;BME280;20031;43.416;23.232;2023-01-27T03:13:40;99448.44;;;1.37;92.09
33697;BME280;20031;43.416;23.232;2023-01-27T03:16:06;99445.88;;;1.37;92.41
33697;BME280;20031;43.416;23.232;2023-01-27T03:18:50;99433.03;;;1.37;91.96
33697;BME280;20031;43.416;23.232;2023-01-27T03:21:18;99440.84;;;1.35;91.81
33697;BME280;20031;43.416;23.232;2023-01-27T03:23:44;99443.53;;;1.34;91.75
33697;BME280;20031;43.416;23.232;2023-01-27T03:26:15;99453.56;;;1.37;92.03
33697;BME280;20031;43.416;23.232;2023-01-27T03:28:41;99460.44;;;1.36;91.97
33697;BME280;20031;43.416;23.232;2023-01-27T03:31:09;99479.19;;;1.37;92.36
33697;BME280;20031;43.416;23.232;2023-01-27T03:33:44;99480.84;;;1.38;91.85
33697;BME280;20031;43.416;23.232;2023-01-27T03:36:09;99478.50;;;1.35;92.20
33697;BME280;20031;43.416;23.232;2023-01-27T03:38:53;99472.09;;;1.29;91.95
33697;BME280;20031;43.416;23.232;2023-01-27T03:41:37;99484.78;;;1.31;92.46
33697;BME280;20031;43.416;23.232;2023-01-27T03:44:21;99489.19;;;1.29;92.21
33697;BME280;20031;43.416;23.232;2023-01-27T03:47:05;99480.72;;;1.28;92.13
33697;BME280;20031;43.416;23.232;2023-01-27T03:49:30;99483.16;;;1.30;92.26
33697;BME280;20031;43.416;23.232;2023-01-27T03:51:56;99472.09;;;1.29;92.04
33697;BME280;20031;43.416;23.232;2023-01-27T03:54:21;99459.16;;;1.31;92.08
33697;BME280;20031;43.416;23.232;2023-01-27T03:56:47;99453.78;;;1.34;92.12
33697;BME280;20031;43.416;23.232;2023-01-27T03:59:12;99456.13;;;1.37;91.99
33697;BME280;20031;43.416;23.232;2023-01-27T04:01:38;99451.09;;;1.35;92.42
33697;BME280;20031;43.416;23.232;2023-01-27T04:04:03;99447.84;;;1.33;92.51
33697;BME280;20031;43.416;23.232;2023-01-27T04:06:47;99438.41;;;1.34;91.95
33697;BME280;20031;43.416;23.232;2023-01-27T04:09:34;99437.47;;;1.35;92.51
33697;BME280;20031;43.416;23.232;2023-01-27T04:12:02;99444.44;;;1.33;91.91
33697;BME280;20031;43.416;23.232;2023-01-27T04:17:01;99430.22;;;1.29;92.31
33697;BME280;20031;43.416;23.232;2023-01-27T04:19:27;99433.50;;;1.31;91.92
33697;BME280;20031;43.416;23.232;2023-01-27T04:21:53;99437.00;;;1.30;91.75
33697;BME280;20031;43.416;23.232;2023-01-27T04:24:19;99428.63;;;1.28;92.08
33697;BME280;20031;43.416;23.232;2023-01-27T04:26:53;99433.88;;;1.26;91.89
33697;BME280;20031;43.416;23.232;2023-01-27T04:29:19;99431.66;;;1.22;92.02
33697;BME280;20031;43.416;23.232;2023-01-27T04:31:46;99423.97;;;1.22;92.16
33697;BME280;20031;43.416;23.232;2023-01-27T04:34:12;99414.75;;;1.19;91.87
33697;BME280;20031;43.416;23.232;2023-01-27T04:36:38;99415.78;;;1.17;91.32
33697;BME280;20031;43.416;23.232;2023-01-27T04:39:04;99423.59;;;1.15;91.98
33697;BME280;20031;43.416;23.232;2023-01-27T04:41:30;99431.41;;;1.14;91.73
33697;BME280;20031;43.416;23.232;2023-01-27T04:43:55;99421.25;;;1.12;91.72
33697;BME280;20031;43.416;23.232;2023-01-27T04:46:21;99432.22;;;1.14;91.76
33697;BME280;20031;43.416;23.232;2023-01-27T04:48:46;99423.72;;;1.14;91.49
33697;BME280;20031;43.416;23.232;2023-01-27T04:51:11;99434.88;;;1.13;91.46
33697;BME280;20031;43.416;23.232;2023-01-27T04:53:37;99453.78;;;1.12;91.36
33697;BME280;20031;43.416;23.232;2023-01-27T04:56:05;99476.75;;;1.13;91.31
33697;BME280;20031;43.416;23.232;2023-01-27T04:58:31;99497.81;;;1.17;91.66
33697;BME280;20031;43.416;23.232;2023-01-27T05:00:57;99508.66;;;1.20;91.29
33697;BME280;20031;43.416;23.232;2023-01-27T05:03:22;99519.41;;;1.25;91.44
33697;BME280;20031;43.416;23.232;2023-01-27T05:05:48;99519.06;;;1.30;91.83
33697;BME280;20031;43.416;23.232;2023-01-27T05:08:13;99521.50;;;1.31;91.20
33697;BME280;20031;43.416;23.232;2023-01-27T05:10:42;99538.41;;;1.34;91.08
33697;BME280;20031;43.416;23.232;2023-01-27T05:13:08;99542.50;;;1.36;91.26
33697;BME280;20031;43.416;23.232;2023-01-27T05:15:33;99557.78;;;1.38;90.93
33697;BME280;20031;43.416;23.232;2023-01-27T05:17:59;99568.84;;;1.38;91.43
33697;BME280;20031;43.416;23.232;2023-01-27T05:20:24;99557.53;;;1.41;91.31
33697;BME280;20031;43.416;23.232;2023-01-27T05:22:50;99555.66;;;1.43;90.78
33697;BME280;20031;43.416;23.232;2023-01-27T05:25:16;99551.38;;;1.43;91.06
33697;BME280;20031;43.416;23.232;2023-01-27T05:27:41;99543.88;;;1.40;90.46
33697;BME280;20031;43.416;23.232;2023-01-27T05:30:07;99540.63;;;1.38;90.52
33697;BME280;20031;43.416;23.232;2023-01-27T05:32:33;99532.56;;;1.32;90.27
33697;BME280;20031;43.416;23.232;2023-01-27T05:34:58;99520.94;;;1.28;90.28
33697;BME280;20031;43.416;23.232;2023-01-27T05:37:24;99519.28;;;1.27;91.05
33697;BME280;20031;43.416;23.232;2023-01-27T05:39:49;99519.50;;;1.24;90.23
33697;BME280;20031;43.416;23.232;2023-01-27T05:42:15;99503.53;;;1.20;90.77
33697;BME280;20031;43.416;23.232;2023-01-27T05:44:40;99494.22;;;1.19;90.75
33697;BME280;20031;43.416;23.232;2023-01-27T05:47:05;99473.81;;;1.18;90.67
33697;BME280;20031;43.416;23.232;2023-01-27T05:49:31;99479.19;;;1.15;90.92
33697;BME280;20031;43.416;23.232;2023-01-27T05:51:57;99475.91;;;1.13;91.28
33697;BME280;20031;43.416;23.232;2023-01-27T05:54:22;99469.84;;;1.14;91.49
33697;BME280;20031;43.416;23.232;2023-01-27T05:56:48;99481.88;;;1.13;90.91
33697;BME280;20031;43.416;23.232;2023-01-27T05:59:13;99473.34;;;1.13;91.54
33697;BME280;20031;43.416;23.232;2023-01-27T06:01:39;99466.59;;;1.12;91.27
33697;BME280;20031;43.416;23.232;2023-01-27T06:04:04;99462.16;;;1.14;91.79
33697;BME280;20031;43.416;23.232;2023-01-27T06:06:31;99456.13;;;1.15;92.02
33697;BME280;20031;43.416;23.232;2023-01-27T06:08:57;99461.13;;;1.16;91.62
33697;BME280;20031;43.416;23.232;2023-01-27T06:11:23;99480.00;;;1.15;91.59
33697;BME280;20031;43.416;23.232;2023-01-27T06:13:50;99477.31;;;1.17;91.62
33697;BME280;20031;43.416;23.232;2023-01-27T06:16:17;99474.75;;;1.17;91.82
33697;BME280;20031;43.416;23.232;2023-01-27T06:18:43;99475.44;;;1.19;92.19
33697;BME280;20031;43.416;23.232;2023-01-27T06:21:10;99472.06;;;1.18;91.91
33697;BME280;20031;43.416;23.232;2023-01-27T06:23:36;99485.56;;;1.20;91.86
33697;BME280;20031;43.416;23.232;2023-01-27T06:26:08;99488.50;;;1.27;92.65
33697;BME280;20031;43.416;23.232;2023-01-27T06:28:35;99489.69;;;1.34;92.40
33697;BME280;20031;43.416;23.232;2023-01-27T06:31:08;99484.44;;;1.35;92.65
33697;BME280;20031;43.416;23.232;2023-01-27T06:33:34;99470.69;;;1.36;92.62
33697;BME280;20031;43.416;23.232;2023-01-27T06:36:08;99469.63;;;1.39;92.75
33697;BME280;20031;43.416;23.232;2023-01-27T06:38:34;99469.31;;;1.43;92.48
33697;BME280;20031;43.416;23.232;2023-01-27T06:41:00;99469.66;;;1.50;92.64
33697;BME280;20031;43.416;23.232;2023-01-27T06:43:26;99476.88;;;1.55;92.66
33697;BME280;20031;43.416;23.232;2023-01-27T06:45:52;99478.38;;;1.58;92.26
33697;BME280;20031;43.416;23.232;2023-01-27T06:48:17;99474.66;;;1.62;92.40
33697;BME280;20031;43.416;23.232;2023-01-27T06:50:43;99483.03;;;1.64;92.76
33697;BME280;20031;43.416;23.232;2023-01-27T06:53:08;99485.84;;;1.72;92.84
33697;BME280;20031;43.416;23.232;2023-01-27T06:55:35;99473.72;;;1.74;92.13
33697;BME280;20031;43.416;23.232;2023-01-27T06:58:06;99467.28;;;1.79;92.53
33697;BME280;20031;43.416;23.232;2023-01-27T07:00:31;99478.97;;;1.83;92.23
33697;BME280;20031;43.416;23.232;2023-01-27T07:02:57;99489.00;;;1.86;92.60
33697;BME280;20031;43.416;23.232;2023-01-27T07:05:22;99504.72;;;1.93;92.47
33697;BME280;20031;43.416;23.232;2023-01-27T07:07:48;99507.06;;;1.96;92.61
33697;BME280;20031;43.416;23.232;2023-01-27T07:10:13;99521.28;;;2.00;92.64
33697;BME280;20031;43.416;23.232;2023-01-27T07:12:38;99521.53;;;1.97;91.76
33697;BME280;20031;43.416;23.232;2023-01-27T07:15:05;99516.16;;;2.00;92.23
33697;BME280;20031;43.416;23.232;2023-01-27T07:17:30;99520.34;;;2.01;91.80
33697;BME280;20031;43.416;23.232;2023-01-27T07:19:56;99522.69;;;2.03;91.77
33697;BME280;20031;43.416;23.232;2023-01-27T07:22:21;99520.22;;;2.02;92.04
33697;BME280;20031;43.416;23.232;2023-01-27T07:24:47;99523.03;;;1.99;91.32
33697;BME280;20031;43.416;23.232;2023-01-27T07:27:12;99530.75;;;1.99;91.54
33697;BME280;20031;43.416;23.232;2023-01-27T07:29:38;99532.38;;;2.00;91.76
33697;BME280;20031;43.416;23.232;2023-01-27T07:32:03;99525.59;;;1.99;91.65
33697;BME280;20031;43.416;23.232;2023-01-27T07:34:29;99532.63;;;1.97;91.30
33697;BME280;20031;43.416;23.232;2023-01-27T07:36:54;99536.25;;;1.95;90.84
33697;BME280;20031;43.416;23.232;2023-01-27T07:39:20;99547.31;;;1.95;91.33
33697;BME280;20031;43.416;23.232;2023-01-27T07:41:47;99543.13;;;1.94;91.04
33697;BME280;20031;43.416;23.232;2023-01-27T07:44:13;99541.13;;;1.98;90.98
33697;BME280;20031;43.416;23.232;2023-01-27T07:46:38;99553.97;;;1.98;90.76
33697;BME280;20031;43.416;23.232;2023-01-27T07:49:04;99560.88;;;1.97;90.68
33697;BME280;20031;43.416;23.232;2023-01-27T07:51:29;99559.09;;;1.98;90.87
33697;BME280;20031;43.416;23.232;2023-01-27T07:53:55;99561.78;;;1.96;90.72
33697;BME280;20031;43.416;23.232;2023-01-27T07:56:20;99554.66;;;2.00;90.92
33697;BME280;20031;43.416;23.232;2023-01-27T07:58:45;99544.28;;;2.01;90.56
33697;BME280;20031;43.416;23.232;2023-01-27T08:01:12;99538.94;;;2.04;90.84
33697;BME280;20031;43.416;23.232;2023-01-27T08:03:38;99535.63;;;2.02;90.84
33697;BME280;20031;43.416;23.232;2023-01-27T08:06:09;99539.72;;;2.04;90.36
33697;BME280;20031;43.416;23.232;2023-01-27T08:08:35;99536.00;;;2.08;90.85
33697;BME280;20031;43.416;23.232;2023-01-27T08:11:02;99534.59;;;2.04;90.31
33697;BME280;20031;43.416;23.232;2023-01-27T08:13:28;99532.16;;;2.03;89.88
33697;BME280;20031;43.416;23.232;2023-01-27T08:15:58;99528.66;;;2.04;90.05
33697;BME280;20031;43.416;23.232;2023-01-27T08:18:27;99540.06;;;2.11;90.08
33697;BME280;20031;43.416;23.232;2023-01-27T08:20:53;99542.75;;;2.20;90.68
33697;BME280;20031;43.416;23.232;2023-01-27T08:23:20;99545.19;;;2.22;89.90
33697;BME280;20031;43.416;23.232;2023-01-27T08:25:53;99540.78;;;2.24;89.64
33697;BME280;20031;43.416;23.232;2023-01-27T08:28:20;99544.50;;;2.20;89.54
33697;BME280;20031;43.416;23.232;2023-01-27T08:30:46;99536.91;;;2.18;89.46
33697;BME280;20031;43.416;23.232;2023-01-27T08:33:12;99528.84;;;2.23;89.28
33697;BME280;20031;43.416;23.232;2023-01-27T08:35:38;99532.81;;;2.27;89.59
33697;BME280;20031;43.416;23.232;2023-01-27T08:38:09;99542.00;;;2.29;89.24
33697;BME280;20031;43.416;23.232;2023-01-27T08:40:34;99531.41;;;2.34;89.42
33697;BME280;20031;43.416;23.232;2023-01-27T08:43:00;99531.16;;;2.37;89.16
33697;BME280;20031;43.416;23.232;2023-01-27T08:45:26;99534.28;;;2.40;89.32
33697;BME280;20031;43.416;23.232;2023-01-27T08:47:52;99525.97;;;2.48;89.15
33697;BME280;20031;43.416;23.232;2023-01-27T08:50:18;99532.25;;;2.54;88.68
33697;BME280;20031;43.416;23.232;2023-01-27T08:52:43;99528.28;;;2.61;88.63
33697;BME280;20031;43.416;23.232;2023-01-27T08:55:09;99528.88;;;2.65;89.12
33697;BME280;20031;43.416;23.232;2023-01-27T08:57:34;99534.78;;;2.76;88.93
33697;BME280;20031;43.416;23.232;2023-01-27T09:00:00;99529.81;;;2.84;88.50
33697;BME280;20031;43.416;23.232;2023-01-27T09:02:26;99526.72;;;3.01;88.54
33697;BME280;20031;43.416;23.232;2023-01-27T09:04:51;99524.50;;;3.17;88.41
33697;BME280;20031;43.416;23.232;2023-01-27T09:07:17;99528.94;;;3.26;88.38
33697;BME280;20031;43.416;23.232;2023-01-27T09:09:45;99526.25;;;3.37;88.12
33697;BME280;20031;43.416;23.232;2023-01-27T09:12:11;99533.44;;;3.33;86.93
33697;BME280;20031;43.416;23.232;2023-01-27T09:14:36;99531.28;;;3.18;86.93
33697;BME280;20031;43.416;23.232;2023-01-27T09:17:02;99534.69;;;2.98;86.00
33697;BME280;20031;43.416;23.232;2023-01-27T09:19:27;99540.69;;;2.88;86.41
33697;BME280;20031;43.416;23.232;2023-01-27T09:21:53;99542.72;;;2.73;85.80
33697;BME280;20031;43.416;23.232;2023-01-27T09:24:18;99542.03;;;2.71;86.55
33697;BME280;20031;43.416;23.232;2023-01-27T09:26:44;99540.72;;;2.77;86.46
33697;BME280;20031;43.416;23.232;2023-01-27T09:29:10;99543.72;;;2.82;86.84
33697;BME280;20031;43.416;23.232;2023-01-27T09:31:36;99542.44;;;2.87;86.20
33697;BME280;20031;43.416;23.232;2023-01-27T09:34:01;99548.41;;;2.88;86.66
33697;BME280;20031;43.416;23.232;2023-01-27T09:36:27;99542.69;;;2.84;85.59
33697;BME280;20031;43.416;23.232;2023-01-27T09:39:00;99559.41;;;2.79;86.28
33697;BME280;20031;43.416;23.232;2023-01-27T09:47:26;99527.84;;;2.56;85.87
33697;BME280;20031;43.416;23.232;2023-01-27T09:50:22;99519.53;;;2.53;86.32
33697;BME280;20031;43.416;23.232;2023-01-27T10:07:11;99503.22;;;2.74;86.77
33697;BME280;20031;43.416;23.232;2023-01-27T10:12:46;99491.13;;;2.65;85.98
33697;BME280;20031;43.416;23.232;2023-01-27T10:21:05;99493.69;;;2.65;87.05
33697;BME280;20031;43.416;23.232;2023-01-27T10:26:32;99497.16;;;2.75;86.30
33697;BME280;20031;43.416;23.232;2023-01-27T10:29:08;99486.63;;;2.78;86.49
33697;BME280;20031;43.416;23.232;2023-01-27T10:31:50;99485.50;;;2.92;86.76
33697;BME280;20031;43.416;23.232;2023-01-27T10:34:33;99488.13;;;3.01;86.74
33697;BME280;20031;43.416;23.232;2023-01-27T10:39:48;99492.72;;;2.98;86.45
33697;BME280;20031;43.416;23.232;2023-01-27T10:42:30;99481.81;;;2.85;85.91
33697;BME280;20031;43.416;23.232;2023-01-27T10:45:26;99482.38;;;2.88;86.12
33697;BME280;20031;43.416;23.232;2023-01-27T10:50:35;99474.19;;;2.83;85.81
33697;BME280;20031;43.416;23.232;2023-01-27T10:53:12;99471.88;;;2.80;86.43
33697;BME280;20031;43.416;23.232;2023-01-27T10:56:18;99476.88;;;2.82;85.83
33697;BME280;20031;43.416;23.232;2023-01-27T11:01:50;99472.72;;;2.81;86.46
33697;BME280;20031;43.416;23.232;2023-01-27T11:04:33;99460.66;;;2.81;86.41
33697;BME280;20031;43.416;23.232;2023-01-27T11:07:00;99454.72;;;2.81;86.49
33697;BME280;20031;43.416;23.232;2023-01-27T11:09:35;99454.72;;;2.81;86.43
33697;BME280;20031;43.416;23.232;2023-01-27T11:12:09;99452.94;;;2.81;86.42
33697;BME280;20031;43.416;23.232;2023-01-27T11:14:56;99445.00;;;2.84;86.06
33697;BME280;20031;43.416;23.232;2023-01-27T11:17:31;99435.72;;;2.93;86.45
33697;BME280;20031;43.416;23.232;2023-01-27T11:28:27;99453.00;;;3.11;85.96
33697;BME280;20031;43.416;23.232;2023-01-27T11:30:56;99460.03;;;3.09;85.95
33697;BME280;20031;43.416;23.232;2023-01-27T11:36:09;99450.03;;;3.06;85.49
33697;BME280;20031;43.416;23.232;2023-01-27T11:38:35;99444.63;;;3.09;85.96
33697;BME280;20031;43.416;23.232;2023-01-27T11:41:01;99444.63;;;3.09;85.71
33697;BME280;20031;43.416;23.232;2023-01-27T11:43:27;99448.50;;;3.03;85.40
33697;BME280;20031;43.416;23.232;2023-01-27T11:46:08;99446.31;;;2.99;85.27
33697;BME280;20031;43.416;23.232;2023-01-27T11:48:41;99433.94;;;2.93;84.81
33697;BME280;20031;43.416;23.232;2023-01-27T11:51:19;99435.41;;;2.86;85.14
33697;BME280;20031;43.416;23.232;2023-01-27T11:54:34;99434.28;;;2.79;85.03
33697;BME280;20031;43.416;23.232;2023-01-27T11:56:35;99433.81;;;2.74;85.12
33697;BME280;20031;43.416;23.232;2023-01-27T11:59:02;99434.75;;;2.73;85.73
33697;BME280;20031;43.416;23.232;2023-01-27T12:01:42;99449.75;;;2.68;85.30
33697;BME280;20031;43.416;23.232;2023-01-27T12:04:24;99442.72;;;2.70;86.12
33697;BME280;20031;43.416;23.232;2023-01-27T12:07:09;99441.41;;;2.76;85.57
33697;BME280;20031;43.416;23.232;2023-01-27T12:09:40;99447.38;;;2.76;85.98
33697;BME280;20031;43.416;23.232;2023-01-27T12:12:19;99441.41;;;2.76;85.29
33697;BME280;20031;43.416;23.232;2023-01-27T12:17:29;99434.50;;;2.56;85.68
33697;BME280;20031;43.416;23.232;2023-01-27T12:19:58;99431.63;;;2.50;85.84
33697;BME280;20031;43.416;23.232;2023-01-27T12:22:38;99435.81;;;2.51;85.73
33697;BME280;20031;43.416;23.232;2023-01-27T12:25:16;99432.56;;;2.49;85.93
33697;BME280;20031;43.416;23.232;2023-01-27T12:27:54;99440.38;;;2.47;85.96
33697;BME280;20031;43.416;23.232;2023-01-27T12:30:23;99444.97;;;2.44;85.92
33697;BME280;20031;43.416;23.232;2023-01-27T12:32:50;99441.44;;;2.45;86.23
33697;BME280;20031;43.416;23.232;2023-01-27T12:37:47;99444.13;;;2.43;86.81
33697;BME280;20031;43.416;23.232;2023-01-27T12:40:22;99445.78;;;2.44;87.04
33697;BME280;20031;43.416;23.232;2023-01-27T12:43:10;99448.47;;;2.43;87.07
33697;BME280;20031;43.416;23.232;2023-01-27T12:45:36;99450.56;;;2.38;87.20
33697;BME280;20031;43.416;23.232;2023-01-27T12:50:35;99463.41;;;2.38;87.46
33697;BME280;20031;43.416;23.232;2023-01-27T12:53:10;99455.03;;;2.36;86.95
33697;BME280;20031;43.416;23.232;2023-01-27T12:55:48;99463.09;;;2.31;87.06
33697;BME280;20031;43.416;23.232;2023-01-27T13:00:52;99467.41;;;2.31;87.52
33697;BME280;20031;43.416;23.232;2023-01-27T13:03:19;99468.50;;;2.28;87.95
33697;BME280;20031;43.416;23.232;2023-01-27T13:05:45;99470.22;;;2.28;87.82
33697;BME280;20031;43.416;23.232;2023-01-27T13:08:15;99468.63;;;2.27;88.19
33697;BME280;20031;43.416;23.232;2023-01-27T13:10:51;99467.22;;;2.23;88.04
33697;BME280;20031;43.416;23.232;2023-01-27T13:13:20;99463.94;;;2.21;87.92
33697;BME280;20031;43.416;23.232;2023-01-27T13:16:14;99467.81;;;2.15;87.96
33697;BME280;20031;43.416;23.232;2023-01-27T13:18:51;99462.81;;;2.14;88.21
33697;BME280;20031;43.416;23.232;2023-01-27T13:21:20;99467.13;;;2.13;88.37
33697;BME280;20031;43.416;23.232;2023-01-27T13:23:49;99467.25;;;2.12;88.59
33697;BME280;20031;43.416;23.232;2023-01-27T13:26:30;99465.59;;;2.11;88.58
33697;BME280;20031;43.416;23.232;2023-01-27T13:34:27;99465.47;;;2.12;89.44
33697;BME280;20031;43.416;23.232;2023-01-27T13:43:02;99478.91;;;2.16;89.69
33697;BME280;20031;43.416;23.232;2023-01-27T13:45:24;99474.81;;;2.13;89.03
33697;BME280;20031;43.416;23.232;2023-01-27T13:47:58;99477.63;;;2.10;89.71
33697;BME280;20031;43.416;23.232;2023-01-27T13:50:30;99482.19;;;2.07;89.06
33697;BME280;20031;43.416;23.232;2023-01-27T13:52:58;99478.13;;;2.04;89.61
33697;BME280;20031;43.416;23.232;2023-01-27T13:55:57;99484.28;;;2.02;89.81
33697;BME280;20031;43.416;23.232;2023-01-27T14:05:06;99499.00;;;2.00;89.45
33697;BME280;20031;43.416;23.232;2023-01-27T14:12:43;99506.97;;;1.97;90.19
33697;BME280;20031;43.416;23.232;2023-01-27T14:15:21;99501.81;;;1.97;89.60
33697;BME280;20031;43.416;23.232;2023-01-27T14:21:00;99499.81;;;2.01;90.25
33697;BME280;20031;43.416;23.232;2023-01-27T14:29:01;99513.13;;;1.95;90.00
33697;BME280;20031;43.416;23.232;2023-01-27T14:45:05;99524.22;;;1.95;90.57
33697;BME280;20031;43.416;23.232;2023-01-27T14:50:40;99518.38;;;1.93;90.90
33697;BME280;20031;43.416;23.232;2023-01-27T14:55:44;99526.44;;;1.89;90.14
33697;BME280;20031;43.416;23.232;2023-01-27T14:58:27;99524.13;;;1.86;90.31
33697;BME280;20031;43.416;23.232;2023-01-27T15:06:48;99523.28;;;1.85;91.07
33697;BME280;20031;43.416;23.232;2023-01-27T15:09:48;99530.28;;;1.83;90.48
33697;BME280;20031;43.416;23.232;2023-01-27T15:15:06;99537.28;;;1.81;91.05
33697;BME280;20031;43.416;23.232;2023-01-27T15:26:21;99551.66;;;1.73;91.17